Antonios — SY8410 — position and weather

sailwx.info

Track history (hours):
 
Tides and Currents Weather Stations Pressure Air Temp Water Temp Dewpoint Dewpoint Depression Visibility Wind Speed Wind Dir Waves Ship Positions

Antonios

Last reported at 2015-Mar-02 07:23 UTC. Time now 2015-Mar-04 20:23 UTC.
Position N 37°10' E 025°48'.

Length 57 m; draft 4.1 m.

Type: Tanker. MMSI: 239191300.

Date/timePositionNaut miles runAvg speedWind from/ knotsBaromVisibWave heightAir tempDewpointWater temp
2015-Mar-02 07:23N 37°10' E 025°48'13 9.8
2015-Mar-02 06:04N 37°13' E 025°32'510.2
2015-Mar-02 05:33N 37°14' E 025°26'10 9.9
2015-Mar-02 04:33N 37°16' E 025°14'1110.0
2015-Mar-02 03:29N 37°19' E 025°01'910.0
2015-Mar-02 02:33N 37°21' E 024°49'52 9.7
2015-Mar-01 21:07N 37°39' E 023°47'6 9.8
2015-Mar-01 20:33N 37°42' E 023°41'10 9.7
2015-Mar-01 19:33N 37°50' E 023°34'1010.1
2015-Mar-01 18:33N 37°52' E 023°22'1010.0
2015-Mar-01 17:32N 37°54' E 023°09'2 0.2
2015-Mar-01 09:33N 37°55' E 023°06'0 0.0
2015-Mar-01 07:15N 37°55' E 023°06'0 0.0
2015-Mar-01 06:13N 37°55' E 023°06'0 0.0
2015-Mar-01 05:33N 37°55' E 023°06'0 0.0
2015-Mar-01 04:32N 37°55' E 023°06'0 0.0
2015-Mar-01 03:33N 37°55' E 023°06'0 0.0
2015-Mar-01 02:28N 37°55' E 023°06'0 0.0
2015-Mar-01 01:25N 37°55' E 023°06'6 2.0
2015-Feb-28 22:30N 37°53' E 023°14'1010.5
2015-Feb-28 21:33N 37°51' E 023°26'1010.1
2015-Feb-28 20:33N 37°50' E 023°39'1010.1
2015-Feb-28 19:33N 37°41' E 023°45'51 9.9
2015-Feb-28 14:23N 37°22' E 024°44'8 9.6
2015-Feb-28 13:33N 37°18' E 024°53'9 9.2
2015-Feb-28 12:33N 37°15' E 025°04'9 8.9
2015-Feb-28 11:33N 37°12' E 025°15'8 8.1
2015-Feb-28 10:33N 37°06' E 025°21'0 0.1
2015-Feb-28 09:33N 37°06' E 025°22'0 0.0
2015-Feb-28 08:33N 37°06' E 025°21'0 0.0
2015-Feb-28 07:33N 37°06' E 025°21'0 0.0
2015-Feb-28 06:33N 37°06' E 025°21'0 0.0
2015-Feb-28 05:33N 37°06' E 025°21'0 0.1
2015-Feb-28 04:33N 37°06' E 025°21'0 0.0
2015-Feb-28 03:33N 37°06' E 025°21'0 0.0
2015-Feb-28 02:33N 37°06' E 025°21'0 0.0
2015-Feb-28 01:33N 37°06' E 025°21'0 0.0
2015-Feb-28 00:33N 37°06' E 025°21'0 0.0
2015-Feb-27 23:33N 37°06' E 025°21'0 0.0
2015-Feb-27 22:33N 37°06' E 025°21'0 0.0
2015-Feb-27 21:33N 37°06' E 025°21'0 0.0
2015-Feb-27 20:33N 37°06' E 025°21'1 1.0
2015-Feb-27 19:33N 37°07' E 025°21'9 8.7
2015-Feb-27 18:33N 37°14' E 025°16'5 4.7
2015-Feb-27 17:33N 37°15' E 025°22'9 8.6
2015-Feb-27 16:33N 37°14' E 025°32'9 9.4
2015-Feb-27 15:33N 37°12' E 025°44'  
Track history (hours):
 
Tides and Currents Weather Stations Pressure Air Temp Water Temp Dewpoint Dewpoint Depression Visibility Wind Speed Wind Dir Waves Ship Positions

Antonios

Last reported at 2015-Mar-02 07:23 UTC. Time now 2015-Mar-04 20:23 UTC.
Position N 37°10' E 025°48'.

Length 57 m; draft 4.1 m.

Type: Tanker. MMSI: 239191300.

Date/timePositionNaut miles runAvg speedWind from/ knotsBaromVisibWave heightAir tempDewpointWater temp
2015-Mar-02 07:23N 37°10' E 025°48'13 9.8
2015-Mar-02 06:04N 37°13' E 025°32'510.2
2015-Mar-02 05:33N 37°14' E 025°26'10 9.9
2015-Mar-02 04:33N 37°16' E 025°14'1110.0
2015-Mar-02 03:29N 37°19' E 025°01'910.0
2015-Mar-02 02:33N 37°21' E 024°49'52 9.7
2015-Mar-01 21:07N 37°39' E 023°47'6 9.8
2015-Mar-01 20:33N 37°42' E 023°41'10 9.7
2015-Mar-01 19:33N 37°50' E 023°34'1010.1
2015-Mar-01 18:33N 37°52' E 023°22'1010.0
2015-Mar-01 17:32N 37°54' E 023°09'2 0.2
2015-Mar-01 09:33N 37°55' E 023°06'0 0.0
2015-Mar-01 07:15N 37°55' E 023°06'0 0.0
2015-Mar-01 06:13N 37°55' E 023°06'0 0.0
2015-Mar-01 05:33N 37°55' E 023°06'0 0.0
2015-Mar-01 04:32N 37°55' E 023°06'0 0.0
2015-Mar-01 03:33N 37°55' E 023°06'0 0.0
2015-Mar-01 02:28N 37°55' E 023°06'0 0.0
2015-Mar-01 01:25N 37°55' E 023°06'6 2.0
2015-Feb-28 22:30N 37°53' E 023°14'1010.5
2015-Feb-28 21:33N 37°51' E 023°26'1010.1
2015-Feb-28 20:33N 37°50' E 023°39'1010.1
2015-Feb-28 19:33N 37°41' E 023°45'51 9.9
2015-Feb-28 14:23N 37°22' E 024°44'8 9.6
2015-Feb-28 13:33N 37°18' E 024°53'9 9.2
2015-Feb-28 12:33N 37°15' E 025°04'9 8.9
2015-Feb-28 11:33N 37°12' E 025°15'8 8.1
2015-Feb-28 10:33N 37°06' E 025°21'0 0.1
2015-Feb-28 09:33N 37°06' E 025°22'0 0.0
2015-Feb-28 08:33N 37°06' E 025°21'0 0.0
2015-Feb-28 07:33N 37°06' E 025°21'0 0.0
2015-Feb-28 06:33N 37°06' E 025°21'0 0.0
2015-Feb-28 05:33N 37°06' E 025°21'0 0.1
2015-Feb-28 04:33N 37°06' E 025°21'0 0.0
2015-Feb-28 03:33N 37°06' E 025°21'0 0.0
2015-Feb-28 02:33N 37°06' E 025°21'0 0.0
2015-Feb-28 01:33N 37°06' E 025°21'0 0.0
2015-Feb-28 00:33N 37°06' E 025°21'0 0.0
2015-Feb-27 23:33N 37°06' E 025°21'0 0.0
2015-Feb-27 22:33N 37°06' E 025°21'0 0.0
2015-Feb-27 21:33N 37°06' E 025°21'0 0.0
2015-Feb-27 20:33N 37°06' E 025°21'1 1.0
2015-Feb-27 19:33N 37°07' E 025°21'9 8.7
2015-Feb-27 18:33N 37°14' E 025°16'5 4.7
2015-Feb-27 17:33N 37°15' E 025°22'9 8.6
2015-Feb-27 16:33N 37°14' E 025°32'9 9.4
2015-Feb-27 15:33N 37°12' E 025°44'  

Dump ship's entire track history